createdAt,value
2023-04-18T00:02:44.168Z,94.78
2023-04-18T00:07:46.469Z,93.90
2023-04-18T00:12:48.060Z,94.41
2023-04-18T00:17:49.686Z,94.23
2023-04-18T00:22:53.115Z,94.13
2023-04-18T00:27:54.579Z,94.60
2023-04-18T00:32:56.025Z,94.24
2023-04-18T00:37:57.970Z,94.31
2023-04-18T00:42:59.932Z,94.67
2023-04-18T00:48:01.854Z,95.24
2023-04-18T00:53:04.016Z,95.22
2023-04-18T00:58:06.264Z,95.22
2023-04-18T01:03:08.546Z,94.85
2023-04-18T01:08:11.109Z,96.19
2023-04-18T01:13:16.954Z,96.38
2023-04-18T01:18:19.164Z,95.68
2023-04-18T01:23:21.279Z,96.74
2023-04-18T01:28:22.831Z,96.63
2023-04-18T01:33:24.359Z,96.26
2023-04-18T01:38:25.930Z,96.90
2023-04-18T01:43:27.442Z,96.52
2023-04-18T01:48:28.958Z,96.30
2023-04-18T01:53:30.866Z,97.06
2023-04-18T01:58:32.282Z,97.18
2023-04-18T02:03:33.967Z,98.34
2023-04-18T02:08:35.980Z,97.85
2023-04-18T02:13:37.642Z,97.90
2023-04-18T02:18:39.350Z,98.31
2023-04-18T02:23:40.765Z,97.84
2023-04-18T02:28:42.202Z,97.34
2023-04-18T02:33:44.594Z,97.62
2023-04-18T02:38:46.012Z,97.06
2023-04-18T02:43:47.451Z,98.01
2023-04-18T02:48:48.915Z,98.05
2023-04-18T02:53:54.928Z,98.21
2023-04-18T02:58:56.340Z,97.07
2023-04-18T03:03:58.391Z,97.60
2023-04-18T03:08:59.836Z,97.30
2023-04-18T03:14:01.286Z,95.91
2023-04-18T03:19:02.727Z,96.84
2023-04-18T03:24:04.390Z,97.15
2023-04-18T03:29:06.419Z,96.32
2023-04-18T03:34:07.834Z,97.34
2023-04-18T03:39:09.320Z,96.80
2023-04-18T03:44:11.209Z,96.84
2023-04-18T03:49:12.851Z,96.01
2023-04-18T03:54:15.388Z,96.33
2023-04-18T03:59:17.137Z,96.82
2023-04-18T04:04:19.294Z,96.93
2023-04-18T04:09:20.832Z,97.20
2023-04-18T04:14:22.898Z,96.78
2023-04-18T04:19:24.442Z,96.04
2023-04-18T04:24:25.871Z,96.26
2023-04-18T04:29:29.068Z,98.42
2023-04-18T04:34:31.041Z,98.31
2023-04-18T04:39:32.481Z,97.41
2023-04-18T04:44:35.589Z,97.24
2023-04-18T04:49:37.114Z,97.00
2023-04-18T04:54:38.761Z,95.62
2023-04-18T04:59:40.337Z,95.90
2023-04-18T05:04:41.894Z,96.59
2023-04-18T05:09:43.516Z,96.72
2023-04-18T05:14:44.969Z,97.14
2023-04-18T05:19:46.412Z,98.13
2023-04-18T05:24:47.864Z,96.19
2023-04-18T05:29:50.360Z,97.06
2023-04-18T05:34:51.806Z,96.74
2023-04-18T05:39:53.253Z,96.09
2023-04-18T05:44:54.700Z,96.66
2023-04-18T05:49:56.368Z,97.87
2023-04-18T05:54:57.790Z,97.53
2023-04-18T05:59:59.217Z,97.72
2023-04-18T06:05:01.517Z,96.77
2023-04-18T06:10:03.643Z,97.63
2023-04-18T06:15:05.841Z,96.66
2023-04-18T06:20:07.750Z,97.73
2023-04-18T06:25:10.065Z,98.45
2023-04-18T06:30:11.986Z,97.38
2023-04-18T06:35:13.471Z,97.52
2023-04-18T06:40:14.890Z,98.11
2023-04-18T06:45:16.360Z,98.09
2023-04-18T06:50:17.804Z,97.34
2023-04-18T06:55:19.390Z,97.04
2023-04-18T07:00:21.162Z,96.32
2023-04-18T07:05:22.695Z,97.74
2023-04-18T07:10:24.326Z,96.88
2023-04-18T07:15:25.841Z,97.67
2023-04-18T07:20:27.274Z,97.67
2023-04-18T07:25:28.757Z,97.63
2023-04-18T07:30:30.413Z,97.90
2023-04-18T07:35:31.957Z,96.50
2023-04-18T07:40:33.462Z,96.41
2023-04-18T07:45:38.245Z,96.05
2023-04-18T07:50:39.768Z,95.34
2023-04-18T07:55:41.258Z,95.22
2023-04-18T08:00:44.670Z,95.22
2023-04-18T08:05:46.159Z,94.75
2023-04-18T08:10:47.641Z,95.00
2023-04-18T08:15:49.125Z,94.46
2023-04-18T08:20:50.631Z,94.94
2023-04-18T08:25:52.433Z,93.45
2023-04-18T08:30:55.215Z,94.06
2023-04-18T08:35:56.686Z,94.14
2023-04-18T08:40:58.172Z,93.22
2023-04-18T08:46:00.520Z,93.25
2023-04-18T08:51:02.331Z,92.19
2023-04-18T08:56:05.417Z,92.57
2023-04-18T09:01:07.337Z,93.63
2023-04-18T09:06:14.334Z,94.38
2023-04-18T09:11:26.157Z,94.04
2023-04-18T09:16:28.114Z,93.54
2023-04-18T09:21:29.744Z,93.42
2023-04-18T09:26:35.851Z,92.07
2023-04-18T09:31:53.576Z,92.51
2023-04-18T09:37:08.956Z,91.87
2023-04-18T09:42:10.890Z,89.23
2023-04-18T09:47:12.379Z,89.82
2023-04-18T09:52:13.970Z,89.86
2023-04-18T09:57:17.243Z,88.07
2023-04-18T10:02:23.069Z,89.49
2023-04-18T10:07:25.948Z,88.77
2023-04-18T10:12:27.554Z,88.24
2023-04-18T10:17:29.769Z,89.05
2023-04-18T10:22:31.780Z,88.92
2023-04-18T10:27:48.334Z,88.59
2023-04-18T10:32:50.157Z,88.55
2023-04-18T10:37:52.126Z,87.62
2023-04-18T10:42:53.941Z,88.57
2023-04-18T10:48:30.257Z,88.68
2023-04-18T10:53:31.721Z,88.28
2023-04-18T10:58:34.378Z,85.17
2023-04-18T11:03:36.007Z,83.25
2023-04-18T11:08:37.525Z,80.23
2023-04-18T11:13:57.508Z,81.50
2023-04-18T11:18:59.511Z,80.90
2023-04-18T11:24:00.975Z,78.62
2023-04-18T11:29:03.399Z,79.89
2023-04-18T11:34:04.828Z,80.73
2023-04-18T11:39:06.318Z,80.98
2023-04-18T11:44:07.892Z,80.96
2023-04-18T11:49:24.604Z,81.85
2023-04-18T11:54:39.851Z,81.73
2023-04-18T11:59:48.253Z,81.82
2023-04-18T12:05:00.419Z,82.87
2023-04-18T12:10:04.225Z,81.81
2023-04-18T12:15:08.818Z,82.16
2023-04-18T12:20:11.426Z,81.84
2023-04-18T12:25:19.893Z,80.88
2023-04-18T12:30:29.722Z,79.61
2023-04-18T12:35:32.328Z,80.23
2023-04-18T12:40:33.865Z,79.53
2023-04-18T12:45:35.721Z,77.83
2023-04-18T12:50:37.216Z,78.93
2023-04-18T12:55:38.716Z,77.27
2023-04-18T13:00:40.669Z,76.46
2023-04-18T13:05:42.192Z,76.50
2023-04-18T13:10:43.782Z,74.58
2023-04-18T13:15:45.508Z,70.85
2023-04-18T13:20:47.165Z,73.21
2023-04-18T13:25:48.666Z,71.92
2023-04-18T13:30:50.200Z,73.13
2023-04-18T13:35:51.651Z,73.48
2023-04-18T13:41:04.434Z,73.29
2023-04-18T13:46:10.855Z,72.08
2023-04-18T13:51:12.341Z,72.67
2023-04-18T13:56:13.753Z,72.70
2023-04-18T14:01:16.600Z,74.44
2023-04-18T14:06:18.086Z,73.39
2023-04-18T14:11:20.160Z,73.92
2023-04-18T14:21:40.744Z,71.85
2023-04-18T14:26:42.245Z,71.90
2023-04-18T14:31:43.773Z,70.47
2023-04-18T14:36:45.296Z,71.19
2023-04-18T14:41:46.993Z,71.34
2023-04-18T14:46:48.475Z,71.52
2023-04-18T14:51:50.102Z,71.61
2023-04-18T14:56:51.600Z,71.41
2023-04-18T15:01:53.198Z,67.08
2023-04-18T15:06:54.644Z,66.55
2023-04-18T15:11:56.114Z,68.04
2023-04-18T15:16:57.815Z,68.81
2023-04-18T15:21:59.331Z,67.86
2023-04-18T15:27:01.427Z,69.12
2023-04-18T15:32:02.865Z,69.67
2023-04-18T15:37:04.558Z,69.79
2023-04-18T15:42:06.162Z,70.21
2023-04-18T15:47:07.731Z,71.19
2023-04-18T15:52:09.177Z,71.40
2023-04-18T15:57:12.140Z,71.79
2023-04-18T16:02:13.597Z,71.86
2023-04-18T16:07:15.997Z,73.41
2023-04-18T16:12:17.409Z,73.31
2023-04-18T16:17:18.821Z,73.85
2023-04-18T16:22:20.328Z,74.77
2023-04-18T16:27:21.939Z,74.80
2023-04-18T16:32:23.388Z,75.01
2023-04-18T16:37:24.949Z,75.05
2023-04-18T16:42:26.358Z,75.81
2023-04-18T16:47:28.635Z,75.58
2023-04-18T16:52:30.993Z,76.35
2023-04-18T16:57:32.590Z,76.91
2023-04-18T17:02:34.297Z,76.87
2023-04-18T17:07:35.941Z,76.64
2023-04-18T17:12:37.631Z,76.63
2023-04-18T17:17:39.144Z,76.95
2023-04-18T17:22:41.082Z,76.91
2023-04-18T17:27:43.126Z,77.42
2023-04-18T17:32:46.054Z,77.56
2023-04-18T17:37:49.379Z,78.43
2023-04-18T17:42:50.842Z,78.28
2023-04-18T17:47:52.381Z,79.42
2023-04-18T17:52:54.165Z,79.23
2023-04-18T17:57:55.848Z,80.31
2023-04-18T18:02:57.380Z,79.41
2023-04-18T18:08:00.174Z,80.94
2023-04-18T18:13:02.184Z,80.75
2023-04-18T18:18:03.782Z,80.88
2023-04-18T18:23:06.806Z,81.03
2023-04-18T18:28:08.285Z,80.80
2023-04-18T18:33:09.877Z,81.27
2023-04-18T18:38:11.407Z,80.89
2023-04-18T18:43:13.171Z,80.94
2023-04-18T18:48:15.368Z,80.51
2023-04-18T18:53:17.986Z,80.65
2023-04-18T18:58:19.415Z,80.38
2023-04-18T19:03:21.609Z,79.95
2023-04-18T19:08:23.190Z,79.75
2023-04-18T19:13:25.098Z,80.01
2023-04-18T19:18:26.602Z,80.05
2023-04-18T19:23:28.348Z,79.76
2023-04-18T19:28:29.810Z,80.08
2023-04-18T19:33:31.266Z,79.71
2023-04-18T19:38:33.961Z,79.94
2023-04-18T19:43:35.519Z,79.91
2023-04-18T19:48:36.960Z,80.30
2023-04-18T19:53:38.573Z,80.11
2023-04-18T19:58:51.028Z,80.09
2023-04-18T20:03:54.019Z,80.00
2023-04-18T20:08:55.754Z,79.90
2023-04-18T20:13:57.225Z,79.77
2023-04-18T20:18:58.758Z,79.63
2023-04-18T20:24:00.241Z,79.68
2023-04-18T20:29:03.618Z,79.10
2023-04-18T20:34:05.040Z,79.01
2023-04-18T20:39:06.486Z,79.09
2023-04-18T20:44:10.050Z,79.10
2023-04-18T20:49:11.611Z,78.93
2023-04-18T20:54:14.364Z,79.09
2023-04-18T20:59:16.070Z,78.69
2023-04-18T21:04:17.969Z,78.85
2023-04-18T21:09:19.580Z,78.78
2023-04-18T21:14:21.056Z,78.80
2023-04-18T21:19:22.523Z,78.88
2023-04-18T21:24:24.010Z,78.68
2023-04-18T21:29:25.551Z,78.06
2023-04-18T21:34:27.251Z,77.81
2023-04-18T21:39:28.725Z,78.41
2023-04-18T21:44:30.183Z,78.40
2023-04-18T21:49:31.619Z,79.14
2023-04-18T21:54:33.107Z,78.61
2023-04-18T21:59:34.583Z,78.68
2023-04-18T22:04:38.585Z,78.67
2023-04-18T22:09:39.998Z,78.47
2023-04-18T22:14:44.929Z,78.70
2023-04-18T22:19:48.027Z,79.09
2023-04-18T22:24:49.440Z,78.57
2023-04-18T22:29:51.049Z,78.49
2023-04-18T22:34:52.469Z,78.37
2023-04-18T22:39:53.907Z,78.28
2023-04-18T22:44:55.401Z,78.47
2023-04-18T22:49:56.858Z,78.54
2023-04-18T22:54:58.263Z,78.24
2023-04-18T22:59:59.674Z,78.56
2023-04-18T23:05:02.544Z,78.45
2023-04-18T23:10:06.957Z,78.57
2023-04-18T23:15:08.861Z,78.67
2023-04-18T23:20:11.282Z,78.56
2023-04-18T23:25:12.811Z,78.79
2023-04-18T23:30:14.439Z,79.41
2023-04-18T23:35:15.959Z,78.62
2023-04-18T23:40:17.431Z,79.08
2023-04-18T23:45:18.990Z,79.02
2023-04-18T23:50:20.752Z,78.74
2023-04-18T23:55:22.214Z,79.14
